Data for 05/16/2018

Time Sea-Level Adjusted Pressure Absolute Pressure Temperature Relative Humidity Dew Point   
(mb) (inHg) (mb) (inHg) (C) (F) (%) (C) (F)
00:05 1018 30.06 847 25.01 13.5 56.2 47 2.5 36.4
00:10 1018 30.06 847 25.01 13.2 55.7 48 2.6 36.6
00:15 1018 30.06 847 25.01 12.9 55.2 49 2.6 36.6
00:20 1018 30.06 847 25.01 12.7 54.9 49 2.4 36.3
00:25 1018 30.06 847 25.01 12.7 54.8 50 2.5 36.6
00:30 1018 30.06 847 25.01 12.5 54.5 50 2.4 36.3
00:35 1018 30.06 847 25.01 12.4 54.4 50 2.5 36.5
00:40 1018 30.06 847 25.01 12.2 54 51 2.6 36.6
00:45 1018 30.06 847 25.01 12 53.5 52 2.5 36.4
00:50 1018 30.06 847 25.01 11.9 53.4 53 2.6 36.7
00:55 1018 30.06 847 25.01 11.7 53.1 53 2.6 36.7
01:00 1018 30.06 847 25.01 11.5 52.8 54 2.6 36.7
01:05 1018 30.06 847 25.01 11.4 52.5 55 2.7 36.9
01:10 1018 30.06 847 25.01 11.1 52 56 2.6 36.7
01:15 1018 30.06 847 25.01 11 51.8 55 2.2 36
01:20 1018 30.06 847 25.01 11.3 52.4 53 2.2 36
01:25 1018 30.06 847 25.01 11.7 53.1 51 2 35.6
01:30 1018 30.06 847 25.01 11.9 53.5 51 2 35.7
01:35 1018 30.06 847 25.01 12 53.7 51 2.2 36
01:40 1018 30.06 847 25.01 11.8 53.2 52 2.3 36.2
01:45 1018 30.06 847 25.01 11.4 52.5 53 2.3 36.1
01:50 1018 30.06 847 25.01 11.2 52.1 54 2.2 35.9
01:55 1018 30.06 847 25.01 11 51.7 56 2.6 36.6
02:00 1018 30.06 847 25.01 10.7 51.2 58 2.7 36.8
02:05 1018 30.06 847 25.01 10.1 50.2 60 2.8 37
02:10 1018 30.06 847 25.01 9.9 49.8 58 2.1 35.9
02:15 1018 30.06 847 25.01 10.1 50.2 56 1.8 35.3
02:20 1018 30.06 847 25.01 10.6 51.1 54 1.6 35
02:25 1018 30.06 847 25.01 10.8 51.5 52 1.5 34.7
02:30 1018 30.06 847 25.01 11 51.8 51 1.3 34.3
02:35 1018 30.06 847 25.01 10.9 51.6 53 1.7 35.1
02:40 1018 30.06 847 25.01 10.6 51 53 1.4 34.5
02:45 1018 30.06 847 25.01 10.6 51.1 52 1.3 34.3
02:50 1018 30.06 847 25.01 10.8 51.5 51 1.1 34.1
02:55 1018 30.06 847 25.01 10.8 51.4 52 1.5 34.7
03:00 1018 30.06 847 25.01 10.6 51 54 1.7 35
03:05 1018 30.06 847 25.01 10.5 50.8 54 1.6 35
03:10 1018 30.06 847 25.01 10.5 50.8 55 1.8 35.2
03:15 1018 30.06 847 25.01 10.1 50.2 57 2.1 35.7
03:20 1018 30.06 847 25.01 9.8 49.6 58 1.9 35.4
03:25 1018 30.06 847 25.01 9.9 49.8 56 1.5 34.7
03:30 1018 30.06 847 25.01 10 50 56 1.7 35.1
03:35 1018 30.06 847 25.01 10 50 56 1.7 35.1
03:40 1018 30.06 847 25.01 10 49.9 56 1.7 35
03:45 1018 30.06 847 25.01 9.8 49.6 57 1.8 35.2
03:50 1018 30.06 847 25.01 9.4 48.9 58 1.7 35.1
03:55 1018 30.06 847 25.01 9.3 48.7 59 1.6 34.9
04:00 1018 30.06 847 25.01 9.1 48.4 60 1.7 35.1
04:05 1018 30.06 847 25.01 8.8 47.8 61 1.6 34.9
04:10 1018 30.06 847 25.01 8.7 47.6 60 1.4 34.6
04:15 1018 30.06 847 25.01 8.9 48 59 1.4 34.5
04:20 1018 30.06 847 25.01 9.1 48.4 59 1.5 34.7
04:25 1018 30.06 847 25.01 9.1 48.4 58 1.4 34.5
04:30 1018 30.06 847 25.01 9.1 48.3 58 1.3 34.3
04:35 1018 30.06 847 25.01 8.7 47.7 59 1.2 34.2
04:40 1018 30.06 847 25.01 8.7 47.6 59 1 33.8
04:45 1018 30.06 847 25.01 9.1 48.4 56 0.9 33.7
04:50 1018 30.06 847 25.01 8.9 47.9 59 1.2 34.2
04:55 1018 30.06 847 25.01 8.6 47.5 58 0.9 33.7
05:00 1018 30.06 847 25.01 8.8 47.8 58 1 33.8
05:05 1018 30.06 847 25.01 8.8 47.8 57 0.9 33.6
05:10 1018 30.06 847 25.01 8.8 47.8 59 1.2 34.2
05:15 1018 30.06 847 25.01 8.7 47.7 58 0.9 33.7
05:20 1018 30.06 847 25.01 8.7 47.6 59 1.1 34
05:25 1018 30.06 847 25.01 8.5 47.3 59 1.1 33.9
05:30 1018 30.06 847 25.01 8.5 47.2 60 1.2 34.1
05:35 1018 30.06 847 25.01 8.6 47.5 59 1.1 33.9
05:40 1018 30.06 847 25.01 8.8 47.9 58 1.1 33.9
05:45 1018 30.06 847 25.01 8.6 47.4 61 1.4 34.5
05:50 1018 30.06 847 25.01 8.2 46.7 61 1.1 33.9
05:55 1018 30.06 847 25.01 8.4 47 59 0.9 33.7
06:00 1018 30.06 847 25.01 8.6 47.5 57 0.6 33.1
06:05 1018 30.06 847 25.01 9.2 48.5 55 0.6 33.1
06:10 1018 30.06 847 25.01 9.5 49.1 54 0.7 33.3
06:15 1018 30.06 847 25.01 9.8 49.6 53 0.7 33.3
06:20 1018 30.06 847 25.01 9.7 49.5 53 0.7 33.2
06:25 1018 30.06 847 25.01 10 49.9 52 0.7 33.2
06:30 1018 30.06 847 25.01 10.1 50.2 52 0.8 33.4
06:35 1018 30.06 847 25.01 9.9 49.9 53 0.8 33.5
06:40 1018 30.06 847 25.01 9.8 49.6 54 0.9 33.7
06:45 1018 30.06 847 25.01 9.5 49.1 56 1.3 34.3
06:50 1018 30.06 847 25.01 9.4 48.9 55 0.8 33.4
06:55 1018 30.06 847 25.01 9.6 49.3 54 0.9 33.6
07:00 1018 30.06 847 25.01 9.8 49.6 54 0.8 33.5
07:05 1018 30.06 847 25.01 9.9 49.8 55 1.3 34.4
07:10 1018 30.06 847 25.01 9.7 49.5 56 1.3 34.4
07:15 1018 30.06 847 25.01 9.7 49.5 55 1.2 34.1
07:20 1018 30.06 847 25.01 9.7 49.4 56 1.3 34.4
07:25 1018 30.06 847 25.01 9.6 49.3 56 1.4 34.4
07:30 1018 30.06 847 25.01 9.6 49.2 55 1.1 34.1
07:35 1018 30.06 847 25.01 10 50.1 54 1.2 34.1
07:40 1018 30.06 847 25.01 10.6 51.1 51 1 33.8
07:45 1018 30.06 847 25.01 11 51.7 52 1.6 34.9
07:50 1018 30.06 847 25.01 11.6 52.8 50 1.5 34.8
07:55 1018 30.06 847 25.01 11.8 53.2 50 1.9 35.4
08:00 1018 30.06 847 25.01 12.2 54 49 1.8 35.3
08:05 1018 30.06 847 25.01 12.4 54.4 50 2.4 36.4
08:10 1018 30.06 847 25.01 12.6 54.8 48 2 35.6
08:15 1018 30.06 847 25.01 13 55.5 48 2.4 36.4
08:20 1018 30.06 847 25.01 13.2 55.8 46 2 35.6
08:25 1018 30.06 847 25.01 13.9 57 44 1.9 35.4
08:30 1018 30.06 847 25.01 13.7 56.6 45 2 35.7
08:35 1018 30.06 847 25.01 14.1 57.3 45 2.3 36.1
08:40 1018 30.06 847 25.01 14.6 58.2 43 2.1 35.8
08:45 1018 30.06 847 25.01 14.9 58.8 41 1.7 35.1
08:50 1018 30.06 847 25.01 15.1 59.1 40 1.7 35.1
08:55 1018 30.06 847 25.01 15.9 60.6 37 1.3 34.3
09:00 1018 30.06 847 25.01 16.8 62.2 36 1.7 35
09:05 1018 30.06 847 25.01 16.6 61.8 37 1.8 35.2
09:10 1018 30.06 847 25.01 16.9 62.5 34 1.2 34.2
09:15 1018 30.06 847 25.01 17.3 63.2 34 1.6 34.9
09:20 1018 30.06 847 25.01 17.5 63.5 34 1.7 35
09:25 1018 30.06 847 25.01 18 64.3 32 1.3 34.3
09:30 1018 30.06 847 25.01 17.8 64 32 1.2 34.1
09:35 1018 30.06 847 25.01 18.5 65.3 31 1.1 33.9
09:40 1018 30.06 847 25.01 19.3 66.7 30 1.6 34.8
09:45 1018 30.06 847 25.01 19.6 67.2 30 1.5 34.6
09:50 1018 30.06 847 25.01 19.5 67.1 30 1.6 34.9
09:55 1018 30.06 847 25.01 19.5 67 29 0.9 33.7
10:00 1018 30.06 847 25.01 18.9 66.1 30 1.1 33.9
10:05 1018 30.06 847 25.01 19.5 67 28 0.8 33.5
10:10 1018 30.06 847 25.01 19.9 67.8 28 0.7 33.3
10:15 1018 30.06 847 25.01 20.2 68.3 28 1.1 34
10:20 1017 30.03 847 25.01 19.8 67.6 29 1.6 34.8
10:25 1017 30.03 847 25.01 19.5 67 28 0.8 33.4
10:30 1017 30.03 847 25.01 20 68 29 1.6 35
10:35 1017 30.03 846 24.98 19.7 67.5 28 0.9 33.6
10:40 1017 30.03 846 24.98 20.5 68.9 28 1.6 34.9
10:45 1017 30.03 846 24.98 19.4 66.9 30 1.4 34.5
10:50 1017 30.03 846 24.98 19.9 67.9 28 1.1 33.9
10:55 1017 30.03 846 24.98 19.8 67.7 29 1.5 34.7
11:00 1017 30.03 846 24.98 19.2 66.5 29 0.7 33.3
11:05 1017 30.03 846 24.98 19.8 67.7 27 0.6 33
11:10 1017 30.03 846 24.98 21.4 70.5 26 1.6 34.8
11:15 1017 30.03 846 24.98 21.3 70.4 27 1.9 35.3
11:20 1017 30.03 846 24.98 21.5 70.6 27 1.9 35.4
11:25 1017 30.03 846 24.98 21.3 70.4 27 1.7 35
11:30 1017 30.03 846 24.98 21 69.9 28 2 35.6
11:35 1017 30.03 846 24.98 21.4 70.5 26 1.1 33.9
11:40 1017 30.03 846 24.98 21.4 70.5 27 1.6 34.9
11:45 1017 30.03 846 24.98 21.3 70.3 27 1.7 35.1
11:50 1016 30 846 24.98 20.8 69.4 27 1.5 34.6
11:55 1016 30 845 24.95 20.4 68.7 28 1.3 34.4
12:00 1016 30 845 24.95 19.7 67.5 30 1.6 34.8
12:05 1016 30 845 24.95 19.4 66.9 31 1.8 35.2
12:10 1016 30 846 24.98 19.8 67.6 28 1.1 33.9
12:15 1016 30 846 24.98 19.7 67.5 29 1.5 34.8
12:20 1016 30 846 24.98 18.9 66.1 29 0.8 33.4
12:25 1016 30 846 24.98 18.6 65.4 30 0.6 33
12:30 1016 30 846 24.98 18.8 65.8 29 0.3 32.5
12:35 1017 30.03 846 24.98 20 68 28 1.1 34
12:40 1017 30.03 846 24.98 19 66.2 32 2 35.6
12:45 1017 30.03 846 24.98 18.2 64.8 36 2.9 37.2
12:50 1017 30.03 846 24.98 18 64.3 36 2.7 36.8
12:55 1017 30.03 846 24.98 18 64.5 39 4.2 39.5
13:00 1017 30.03 846 24.98 18.3 65 36 3 37.5
13:05 1017 30.03 846 24.98 19.3 66.8 32 2.5 36.4
13:10 1016 30 846 24.98 20.1 68.1 27 0.7 33.2
13:15 1016 30 846 24.98 20.3 68.6 27 1.1 34
13:20 1016 30 846 24.98 21 69.8 28 1.9 35.4
13:25 1016 30 845 24.95 20.5 68.9 28 1.7 35.1
13:30 1016 30 845 24.95 21 69.7 26 1 33.8
13:35 1016 30 845 24.95 20.3 68.6 30 2.4 36.3
13:40 1016 30 845 24.95 19.7 67.4 30 1.8 35.2
13:45 1016 30 846 24.98 19.1 66.3 33 2.4 36.3
13:50 1017 30.03 846 24.98 19.1 66.4 37 4.4 39.9
13:55 1017 30.03 846 24.98 19.2 66.5 47 7.8 46
14:00 1017 30.03 846 24.98 18.3 65 44 5.9 42.5
14:05 1017 30.03 846 24.98 18.6 65.6 39 4.6 40.2
14:10 1017 30.03 846 24.98 18.6 65.5 40 4.7 40.5
14:15 1017 30.03 846 24.98 17.8 64.1 41 4.4 39.9
14:20 1017 30.03 846 24.98 17.8 64 40 4 39.2
14:25 1016 30 845 24.95 17.9 64.2 36 2.7 36.8
14:30 1016 30 845 24.95 18.8 65.8 31 1.5 34.7
14:35 1016 30 845 24.95 18.7 65.6 33 2.2 35.9
14:40 1016 30 845 24.95 19 66.1 31 1.6 35
14:45 1016 30 845 24.95 19.7 67.5 31 2.2 36
14:50 1016 30 845 24.95 20 68 30 1.9 35.4
14:55 1016 30 845 24.95 20 68 29 1.5 34.6
15:00 1016 30 845 24.95 20.5 68.8 28 1.5 34.7
15:05 1016 30 845 24.95 20.4 68.7 28 1.5 34.7
15:10 1016 30 845 24.95 20.1 68.1 28 1 33.7
15:15 1015 29.97 845 24.95 20.6 69.1 27 1.1 34
15:20 1015 29.97 845 24.95 21.6 70.8 25 1 33.9
15:25 1015 29.97 845 24.95 22 71.6 25 1.3 34.4
15:30 1015 29.97 845 24.95 21.2 70.2 27 1.6 34.9
15:35 1015 29.97 845 24.95 21.6 70.9 25 0.8 33.4
15:40 1015 29.97 845 24.95 21.3 70.4 26 1 33.9
15:45 1015 29.97 844 24.92 22 71.7 24 0.9 33.6
15:50 1015 29.97 844 24.92 21.5 70.6 26 1.1 34
15:55 1015 29.97 844 24.92 20.3 68.6 27 0.6 33.1
16:00 1015 29.97 844 24.92 21 69.8 24 0.1 32.1
16:05 1015 29.97 844 24.92 22.6 72.6 24 0.9 33.7
16:10 1015 29.97 844 24.92 22.5 72.5 24 1.1 34
16:15 1015 29.97 844 24.92 23.1 73.5 22 0.1 32.2
16:20 1015 29.97 844 24.92 22.9 73.3 22 0.4 32.7
16:25 1015 29.97 844 24.92 22.6 72.7 23 0.5 33
16:30 1015 29.97 844 24.92 22 71.5 23 0.2 32.3
16:35 1015 29.97 844 24.92 22.3 72.1 23 0.5 32.9
16:40 1015 29.97 844 24.92 22.1 71.8 24 0.6 33.1
16:45 1014 29.94 844 24.92 22.6 72.7 22 -0.3 31.5
16:50 1014 29.94 844 24.92 22.4 72.4 23 0.4 32.8
16:55 1014 29.94 844 24.92 22.4 72.3 24 1.2 34.2
17:00 1014 29.94 843 24.89 21.6 70.9 25 1.1 34
17:05 1014 29.94 844 24.92 21.5 70.8 26 1.3 34.4
17:10 1014 29.94 844 24.92 21.6 70.8 26 1.6 34.9
17:15 1014 29.94 844 24.92 20.8 69.5 25 0.4 32.8
17:20 1014 29.94 844 24.92 20.5 68.8 25 0.1 32.1
17:25 1014 29.94 844 24.92 20 68 28 1.1 33.9
17:30 1014 29.94 844 24.92 19.8 67.6 29 1.3 34.4
17:35 1014 29.94 844 24.92 20.1 68.1 30 2.2 35.9
17:40 1014 29.94 844 24.92 20.6 69 28 1.5 34.8
17:45 1014 29.94 844 24.92 20.8 69.5 34 4.6 40.3
17:50 1014 29.94 844 24.92 19.7 67.4 37 4.7 40.4
17:55 1014 29.94 844 24.92 18.9 65.9 35 3.3 37.9
18:00 1014 29.94 844 24.92 18.8 65.8 37 3.9 39
18:05 1014 29.94 844 24.92 18.9 66.1 34 2.8 37.1
18:10 1014 29.94 844 24.92 19 66.3 32 2.2 35.9
18:15 1014 29.94 843 24.89 19.5 67.1 31 1.9 35.5
18:20 1014 29.94 844 24.92 20.1 68.1 27 0.6 33.1
18:25 1014 29.94 844 24.92 20.3 68.6 27 0.8 33.5
18:30 1014 29.94 844 24.92 20.6 69.1 29 2 35.6
18:35 1014 29.94 843 24.89 20.8 69.5 28 2 35.6
18:40 1014 29.94 843 24.89 20.4 68.6 29 2 35.6
18:45 1014 29.94 843 24.89 20 68.1 30 2 35.7
18:50 1014 29.94 844 24.92 19.6 67.2 32 2.7 36.8
18:55 1015 29.97 844 24.92 19.2 66.6 33 2.7 36.8
19:00 1015 29.97 844 24.92 18.7 65.7 43 6 42.9
19:05 1015 29.97 844 24.92 17.5 63.4 44 5.3 41.6
19:10 1015 29.97 844 24.92 17.1 62.7 46 5.3 41.6
19:15 1015 29.97 844 24.92 17.2 62.9 44 5 41
19:20 1015 29.97 844 24.92 17.3 63.1 50 6.9 44.5
19:25 1015 29.97 844 24.92 16.7 62 52 7 44.6
19:30 1015 29.97 844 24.92 16 60.8 55 7 44.7
19:35 1015 29.97 844 24.92 15.3 59.5 59 7.3 45.1
19:40 1015 29.97 844 24.92 14.7 58.5 59 7 44.5
19:45 1015 29.97 845 24.95 14.7 58.4 61 7.2 44.9
19:50 1016 30 845 24.95 14.5 58.2 59 6.6 43.9
19:55 1016 30 845 24.95 14.6 58.3 57 6.2 43.2
20:00 1016 30 845 24.95 14.5 58.1 57 6.2 43.2
20:05 1016 30 845 24.95 14.6 58.2 55 5.8 42.4
20:10 1016 30 845 24.95 14.5 58 56 5.9 42.6
20:15 1016 30 845 24.95 14.4 58 59 6.6 43.9
20:20 1016 30 845 24.95 14.1 57.4 62 7.1 44.8
20:25 1016 30 845 24.95 13.8 56.8 64 7.1 44.8
20:30 1016 30 845 24.95 13.5 56.2 64 6.9 44.4
20:35 1016 30 845 24.95 13.3 56 65 6.9 44.3
20:40 1016 30 845 24.95 13.2 55.8 68 7.4 45.4
20:45 1016 30 845 24.95 13.4 56 59 5.5 41.9
20:50 1016 30 845 24.95 13.7 56.7 58 5.6 42.1
20:55 1016 30 845 24.95 13.7 56.7 58 5.6 42
21:00 1016 30 845 24.95 13.1 55.6 62 6.1 43
21:05 1016 30 845 24.95 12.3 54.1 68 6.7 44
21:10 1016 30 845 24.95 11.9 53.4 66 5.7 42.3
21:15 1016 30 845 24.95 12.3 54.1 59 4.6 40.3
21:20 1016 30 845 24.95 12.8 55.1 59 5.1 41.1
21:25 1016 30 845 24.95 12.8 55.1 59 5 41
21:30 1016 30 845 24.95 12.8 55 58 4.9 40.8
21:35 1016 30 845 24.95 12.8 55.1 58 4.8 40.7
21:40 1016 30 846 24.98 12.8 55 60 5.2 41.4
21:45 1017 30.03 846 24.98 12.8 55 60 5.3 41.6
21:50 1017 30.03 846 24.98 13 55.3 60 5.4 41.7
21:55 1017 30.03 846 24.98 12.9 55.2 58 5 40.9
22:00 1017 30.03 846 24.98 12.8 55 61 5.5 41.8
22:05 1017 30.03 846 24.98 12.7 54.9 61 5.5 41.9
22:10 1017 30.03 846 24.98 12.5 54.5 63 5.6 42.1
22:15 1017 30.03 846 24.98 12.4 54.4 61 5.3 41.5
22:20 1017 30.03 846 24.98 12.6 54.6 61 5.4 41.8
22:25 1017 30.03 846 24.98 12.5 54.5 61 5.2 41.4
22:30 1017 30.03 846 24.98 12.4 54.3 63 5.7 42.2
22:35 1017 30.03 846 24.98 12.2 53.9 65 5.8 42.5
22:40 1017 30.03 846 24.98 12 53.6 63 5.3 41.5
22:45 1017 30.03 846 24.98 11.9 53.4 64 5.3 41.6
22:50 1017 30.03 846 24.98 11.7 53.1 65 5.5 41.9
22:55 1017 30.03 846 24.98 11.5 52.7 67 5.6 42
23:00 1017 30.03 846 24.98 11.4 52.5 66 5.3 41.6
23:05 1017 30.03 846 24.98 11.4 52.4 67 5.5 41.8
23:10 1017 30.03 846 24.98 10.9 51.7 68 5.4 41.7
23:15 1017 30.03 846 24.98 10.8 51.4 69 5.4 41.6
23:20 1016 30 846 24.98 10.7 51.3 69 5.4 41.7
23:25 1016 30 846 24.98 10.7 51.2 68 5.1 41.1
23:30 1016 30 846 24.98 10.7 51.2 68 5 41.1
23:35 1016 30 846 24.98 10.4 50.6 71 5.4 41.8
23:40 1016 30 845 24.95 9.9 49.8 75 5.8 42.4
23:45 1016 30 845 24.95 9.8 49.6 75 5.6 42.1
23:50 1016 30 845 24.95 9.7 49.4 76 5.6 42.2
23:55 1016 30 845 24.95 9.6 49.2 77 5.7 42.3
24:00 1016 30 845 24.95 9.4 49 78 5.8 42.4